Aérodrome :
LOGIN :

S'inscrire | Disclaimer

   EN    FR    IT 

 










Légende :    VFR   VFR Marginal   IFR   IFR Intensif   IFR Très Intensif
Visi : 
Plafond : 
>= 8 km
>= 3000ft
5 à 8 km
1000 à 3000 ft
1500m à 5 km
500 à 1000 ft
800 à 1500m
200 à 500 ft
< 800m
< 200 ft
Symboles :   Orages  Brouillard  Fortes neiges  Fortes précipitations  Vent > 20 kt
SIGMETs :   Divers  Orages  Givrage  Turbulence  Onde Orograph.  Cendres Volcan.






- Altitude de l'aérodrome : 1830 ft


EBLB - Butgenbach Elsenborn

DERNIER METAR :
  • 140025Z AUTO 18008KT 9999 BKN007/// 03/02 Q0999 GRN

METARs EXPIRÉS :
  • 132355Z AUTO 18006KT 9999 BKN006/// OVC021/// 03/02 Q0999 YLO
  • 132325Z AUTO 19005KT 9999 BKN005/// 02/02 Q0999 YLO
  • 132303Z AUTO 19005KT 9999 BKN006/// 02/02 Q0999 YLO
  • 132255Z AUTO 20005KT 9999 BKN007/// 02/02 Q0999 GRN
  • 132225Z AUTO 20005KT 9999 BKN007/// 02/02 Q1000 GRN
  • 132155Z AUTO 19007KT 9000 -RA OVC004/// 03/02 Q1000 YLO

Prévision TAF périmée.



MET'MAP, la Météo Aéronautique d'un coup d'oeil ! - Copyright ORBIFLY Décembre 2007 - Disclaimer

ORBIFLY MET'MAP TEAM :

Programmation & Développement : Alexandra Zaïnal
Conception & Développement : Baudouin d'Aumeries
Co-Programmation & Développement : Marc-Olivier Méhu
Soutien technique & logistique : Manuel Goepfert

Contact : metmap@orbifly.com




SOURCES & CREDITS :

   NOAA